Archer, Florida
Current Conditions -  °F | °C
As of 1:53 AM on Sunday 23 Nov 2014 (Local Time) from KGNV Reporting Station
Overcast Overcast  
Wind Chill: 67°   Ceiling: 3200
Heat Index: 67°   Visibility: 10mi
Dew Point: 65°   Wind: 9mph
Humidity: 93%   Direction: 120°ESE
Pressure: 30.06"   Gusts: NA
Location:  29.53°N, 82.52°W
Report Text: KGNV 230653Z AUTO 12008KT 10SM BKN032 OVC090 19/18 A3006 RMK AO2 RAE19B40E50 SLP176 P0000 T01940183
Loading
Personal Weather Stations






























Interactive Weather Map New forecast layout! Learn more

10-Day Weather Forecast

Advertisements
Track Severe Weather on mobile